sensor_id;sensor_type;location;lat;lon;timestamp;P1;durP1;ratioP1;P2;durP2;ratioP2
6356;SDS011;3211;53.452;-2.264;2022-11-22T00:00:12;6.17;;;3.80;;
6356;SDS011;3211;53.452;-2.264;2022-11-22T00:02:40;6.37;;;3.17;;
6356;SDS011;3211;53.452;-2.264;2022-11-22T00:05:07;4.03;;;3.17;;
6356;SDS011;3211;53.452;-2.264;2022-11-22T00:07:34;4.30;;;3.03;;
6356;SDS011;3211;53.452;-2.264;2022-11-22T00:10:04;3.80;;;2.77;;
6356;SDS011;3211;53.452;-2.264;2022-11-22T00:12:33;4.60;;;3.23;;
6356;SDS011;3211;53.452;-2.264;2022-11-22T00:15:00;3.97;;;3.60;;
6356;SDS011;3211;53.452;-2.264;2022-11-22T00:17:27;3.40;;;2.80;;
6356;SDS011;3211;53.452;-2.264;2022-11-22T00:19:54;4.43;;;3.50;;
6356;SDS011;3211;53.452;-2.264;2022-11-22T00:22:21;5.87;;;3.30;;
6356;SDS011;3211;53.452;-2.264;2022-11-22T00:24:48;3.10;;;2.63;;
6356;SDS011;3211;53.452;-2.264;2022-11-22T00:27:18;3.70;;;2.77;;
6356;SDS011;3211;53.452;-2.264;2022-11-22T00:29:46;4.30;;;3.00;;
6356;SDS011;3211;53.452;-2.264;2022-11-22T00:32:13;4.53;;;3.27;;
6356;SDS011;3211;53.452;-2.264;2022-11-22T00:34:40;5.17;;;3.47;;
6356;SDS011;3211;53.452;-2.264;2022-11-22T00:37:07;6.10;;;3.67;;
6356;SDS011;3211;53.452;-2.264;2022-11-22T00:39:34;6.47;;;3.67;;
6356;SDS011;3211;53.452;-2.264;2022-11-22T00:42:01;9.70;;;4.27;;
6356;SDS011;3211;53.452;-2.264;2022-11-22T00:44:29;7.93;;;4.30;;
6356;SDS011;3211;53.452;-2.264;2022-11-22T00:46:56;8.93;;;4.10;;
6356;SDS011;3211;53.452;-2.264;2022-11-22T00:49:23;8.80;;;4.20;;
6356;SDS011;3211;53.452;-2.264;2022-11-22T00:51:50;8.90;;;4.70;;
6356;SDS011;3211;53.452;-2.264;2022-11-22T00:54:17;10.13;;;4.93;;
6356;SDS011;3211;53.452;-2.264;2022-11-22T00:56:44;9.93;;;4.50;;
6356;SDS011;3211;53.452;-2.264;2022-11-22T00:59:11;9.20;;;4.37;;
6356;SDS011;3211;53.452;-2.264;2022-11-22T01:01:39;9.97;;;4.90;;
6356;SDS011;3211;53.452;-2.264;2022-11-22T01:04:06;10.37;;;4.70;;
6356;SDS011;3211;53.452;-2.264;2022-11-22T01:06:33;9.20;;;4.90;;
6356;SDS011;3211;53.452;-2.264;2022-11-22T01:09:01;9.23;;;5.10;;
6356;SDS011;3211;53.452;-2.264;2022-11-22T01:11:27;6.33;;;4.60;;
6356;SDS011;3211;53.452;-2.264;2022-11-22T01:13:55;8.43;;;4.27;;
6356;SDS011;3211;53.452;-2.264;2022-11-22T01:16:21;6.50;;;4.03;;
6356;SDS011;3211;53.452;-2.264;2022-11-22T01:18:50;5.40;;;3.40;;
6356;SDS011;3211;53.452;-2.264;2022-11-22T01:21:17;3.97;;;3.37;;
6356;SDS011;3211;53.452;-2.264;2022-11-22T01:23:44;3.07;;;2.80;;
6356;SDS011;3211;53.452;-2.264;2022-11-22T01:26:11;4.63;;;3.33;;
6356;SDS011;3211;53.452;-2.264;2022-11-22T01:28:38;5.17;;;3.20;;
6356;SDS011;3211;53.452;-2.264;2022-11-22T01:31:05;4.37;;;3.50;;
6356;SDS011;3211;53.452;-2.264;2022-11-22T01:33:32;5.80;;;4.07;;
6356;SDS011;3211;53.452;-2.264;2022-11-22T01:36:00;7.43;;;4.10;;
6356;SDS011;3211;53.452;-2.264;2022-11-22T01:38:27;5.20;;;4.30;;
6356;SDS011;3211;53.452;-2.264;2022-11-22T01:40:54;4.77;;;3.97;;
6356;SDS011;3211;53.452;-2.264;2022-11-22T01:43:21;6.60;;;4.77;;
6356;SDS011;3211;53.452;-2.264;2022-11-22T01:45:51;7.03;;;4.13;;
6356;SDS011;3211;53.452;-2.264;2022-11-22T01:48:21;4.87;;;3.60;;
6356;SDS011;3211;53.452;-2.264;2022-11-22T01:51:03;4.10;;;3.70;;
6356;SDS011;3211;53.452;-2.264;2022-11-22T01:53:35;5.23;;;3.67;;
6356;SDS011;3211;53.452;-2.264;2022-11-22T01:56:05;5.77;;;4.37;;
6356;SDS011;3211;53.452;-2.264;2022-11-22T01:58:35;4.97;;;4.03;;
6356;SDS011;3211;53.452;-2.264;2022-11-22T02:01:04;3.20;;;2.60;;
6356;SDS011;3211;53.452;-2.264;2022-11-22T02:03:33;4.67;;;3.30;;
6356;SDS011;3211;53.452;-2.264;2022-11-22T02:06:03;3.50;;;2.80;;
6356;SDS011;3211;53.452;-2.264;2022-11-22T02:08:32;4.30;;;2.80;;
6356;SDS011;3211;53.452;-2.264;2022-11-22T02:11:04;3.77;;;2.80;;
6356;SDS011;3211;53.452;-2.264;2022-11-22T02:13:33;3.93;;;3.37;;
6356;SDS011;3211;53.452;-2.264;2022-11-22T02:16:04;4.20;;;3.80;;
6356;SDS011;3211;53.452;-2.264;2022-11-22T02:18:32;5.50;;;4.23;;
6356;SDS011;3211;53.452;-2.264;2022-11-22T02:21:00;10.07;;;5.60;;
6356;SDS011;3211;53.452;-2.264;2022-11-22T02:23:31;6.10;;;5.27;;
6356;SDS011;3211;53.452;-2.264;2022-11-22T02:26:08;6.27;;;5.20;;
6356;SDS011;3211;53.452;-2.264;2022-11-22T02:28:35;6.90;;;5.40;;
6356;SDS011;3211;53.452;-2.264;2022-11-22T02:31:04;11.27;;;5.80;;
6356;SDS011;3211;53.452;-2.264;2022-11-22T02:33:32;5.97;;;5.37;;
6356;SDS011;3211;53.452;-2.264;2022-11-22T02:35:59;9.83;;;5.60;;
6356;SDS011;3211;53.452;-2.264;2022-11-22T02:38:27;5.57;;;5.07;;
6356;SDS011;3211;53.452;-2.264;2022-11-22T02:40:57;6.60;;;5.47;;
6356;SDS011;3211;53.452;-2.264;2022-11-22T02:43:29;7.33;;;5.80;;
6356;SDS011;3211;53.452;-2.264;2022-11-22T02:46:02;7.50;;;5.40;;
6356;SDS011;3211;53.452;-2.264;2022-11-22T02:48:30;7.90;;;5.53;;
6356;SDS011;3211;53.452;-2.264;2022-11-22T02:50:57;7.70;;;5.80;;
6356;SDS011;3211;53.452;-2.264;2022-11-22T02:53:24;7.83;;;4.90;;
6356;SDS011;3211;53.452;-2.264;2022-11-22T02:55:51;5.67;;;4.60;;
6356;SDS011;3211;53.452;-2.264;2022-11-22T02:58:18;5.20;;;4.27;;
6356;SDS011;3211;53.452;-2.264;2022-11-22T03:00:46;6.43;;;4.40;;
6356;SDS011;3211;53.452;-2.264;2022-11-22T03:03:13;7.77;;;4.73;;
6356;SDS011;3211;53.452;-2.264;2022-11-22T03:05:40;5.10;;;4.00;;
6356;SDS011;3211;53.452;-2.264;2022-11-22T03:08:07;5.27;;;4.40;;
6356;SDS011;3211;53.452;-2.264;2022-11-22T03:10:34;4.60;;;3.80;;
6356;SDS011;3211;53.452;-2.264;2022-11-22T03:13:01;4.70;;;4.03;;
6356;SDS011;3211;53.452;-2.264;2022-11-22T03:15:28;5.70;;;3.10;;
6356;SDS011;3211;53.452;-2.264;2022-11-22T03:17:57;5.17;;;3.50;;
6356;SDS011;3211;53.452;-2.264;2022-11-22T03:20:25;3.73;;;3.37;;
6356;SDS011;3211;53.452;-2.264;2022-11-22T03:22:52;7.47;;;3.77;;
6356;SDS011;3211;53.452;-2.264;2022-11-22T03:25:19;7.17;;;3.63;;
6356;SDS011;3211;53.452;-2.264;2022-11-22T03:27:46;5.07;;;3.63;;
6356;SDS011;3211;53.452;-2.264;2022-11-22T03:30:14;5.07;;;3.70;;
6356;SDS011;3211;53.452;-2.264;2022-11-22T03:32:41;4.57;;;4.10;;
6356;SDS011;3211;53.452;-2.264;2022-11-22T03:35:09;4.80;;;4.23;;
6356;SDS011;3211;53.452;-2.264;2022-11-22T03:37:37;4.13;;;3.43;;
6356;SDS011;3211;53.452;-2.264;2022-11-22T03:40:04;6.20;;;4.07;;
6356;SDS011;3211;53.452;-2.264;2022-11-22T03:42:32;5.20;;;4.20;;
6356;SDS011;3211;53.452;-2.264;2022-11-22T03:44:59;3.53;;;3.23;;
6356;SDS011;3211;53.452;-2.264;2022-11-22T03:47:26;3.00;;;2.20;;
6356;SDS011;3211;53.452;-2.264;2022-11-22T03:50:13;5.60;;;2.87;;
6356;SDS011;3211;53.452;-2.264;2022-11-22T03:52:40;2.90;;;2.57;;
6356;SDS011;3211;53.452;-2.264;2022-11-22T03:55:07;4.97;;;2.80;;
6356;SDS011;3211;53.452;-2.264;2022-11-22T03:57:35;3.33;;;2.60;;
6356;SDS011;3211;53.452;-2.264;2022-11-22T04:00:02;4.07;;;2.40;;
6356;SDS011;3211;53.452;-2.264;2022-11-22T04:02:30;2.63;;;2.23;;
6356;SDS011;3211;53.452;-2.264;2022-11-22T04:04:57;3.50;;;2.20;;
6356;SDS011;3211;53.452;-2.264;2022-11-22T04:07:25;2.80;;;2.50;;
6356;SDS011;3211;53.452;-2.264;2022-11-22T04:09:52;2.30;;;2.07;;
6356;SDS011;3211;53.452;-2.264;2022-11-22T04:12:19;2.70;;;2.13;;
6356;SDS011;3211;53.452;-2.264;2022-11-22T04:14:46;3.50;;;2.20;;
6356;SDS011;3211;53.452;-2.264;2022-11-22T04:17:30;4.40;;;2.47;;
6356;SDS011;3211;53.452;-2.264;2022-11-22T04:20:09;3.57;;;2.20;;
6356;SDS011;3211;53.452;-2.264;2022-11-22T04:22:57;2.43;;;2.20;;
6356;SDS011;3211;53.452;-2.264;2022-11-22T04:25:25;2.93;;;2.60;;
6356;SDS011;3211;53.452;-2.264;2022-11-22T04:27:52;3.33;;;2.50;;
6356;SDS011;3211;53.452;-2.264;2022-11-22T04:30:19;2.53;;;2.30;;
6356;SDS011;3211;53.452;-2.264;2022-11-22T04:32:46;2.30;;;2.10;;
6356;SDS011;3211;53.452;-2.264;2022-11-22T04:35:12;3.00;;;2.70;;
6356;SDS011;3211;53.452;-2.264;2022-11-22T04:37:40;4.80;;;2.70;;
6356;SDS011;3211;53.452;-2.264;2022-11-22T04:40:09;5.40;;;2.93;;
6356;SDS011;3211;53.452;-2.264;2022-11-22T04:42:37;3.00;;;2.70;;
6356;SDS011;3211;53.452;-2.264;2022-11-22T04:45:21;3.10;;;2.43;;
6356;SDS011;3211;53.452;-2.264;2022-11-22T04:47:48;4.70;;;3.50;;
6356;SDS011;3211;53.452;-2.264;2022-11-22T04:50:24;4.07;;;3.03;;
6356;SDS011;3211;53.452;-2.264;2022-11-22T04:53:09;5.83;;;3.30;;
6356;SDS011;3211;53.452;-2.264;2022-11-22T04:55:37;5.67;;;2.90;;
6356;SDS011;3211;53.452;-2.264;2022-11-22T04:58:04;4.67;;;3.30;;
6356;SDS011;3211;53.452;-2.264;2022-11-22T05:00:31;5.20;;;3.10;;
6356;SDS011;3211;53.452;-2.264;2022-11-22T05:02:59;3.53;;;3.10;;
6356;SDS011;3211;53.452;-2.264;2022-11-22T05:05:27;4.20;;;3.27;;
6356;SDS011;3211;53.452;-2.264;2022-11-22T05:07:54;3.30;;;3.07;;
6356;SDS011;3211;53.452;-2.264;2022-11-22T05:10:23;4.97;;;3.17;;
6356;SDS011;3211;53.452;-2.264;2022-11-22T05:12:52;4.33;;;3.20;;
6356;SDS011;3211;53.452;-2.264;2022-11-22T05:15:19;4.20;;;3.40;;
6356;SDS011;3211;53.452;-2.264;2022-11-22T05:17:46;4.97;;;2.90;;
6356;SDS011;3211;53.452;-2.264;2022-11-22T05:20:13;8.17;;;3.47;;
6356;SDS011;3211;53.452;-2.264;2022-11-22T05:22:40;8.23;;;4.07;;
6356;SDS011;3211;53.452;-2.264;2022-11-22T05:25:24;3.40;;;3.00;;
6356;SDS011;3211;53.452;-2.264;2022-11-22T05:27:53;4.17;;;3.70;;
6356;SDS011;3211;53.452;-2.264;2022-11-22T05:30:20;3.80;;;3.37;;
6356;SDS011;3211;53.452;-2.264;2022-11-22T05:32:47;4.60;;;3.60;;
6356;SDS011;3211;53.452;-2.264;2022-11-22T05:35:14;3.60;;;3.20;;
6356;SDS011;3211;53.452;-2.264;2022-11-22T05:37:41;4.90;;;3.63;;
6356;SDS011;3211;53.452;-2.264;2022-11-22T05:40:09;3.80;;;3.27;;
6356;SDS011;3211;53.452;-2.264;2022-11-22T05:42:36;4.70;;;3.87;;
6356;SDS011;3211;53.452;-2.264;2022-11-22T05:45:05;4.90;;;3.33;;
6356;SDS011;3211;53.452;-2.264;2022-11-22T05:47:33;7.80;;;4.07;;
6356;SDS011;3211;53.452;-2.264;2022-11-22T05:50:01;5.93;;;3.83;;
6356;SDS011;3211;53.452;-2.264;2022-11-22T05:52:28;3.87;;;3.40;;
6356;SDS011;3211;53.452;-2.264;2022-11-22T05:54:55;4.83;;;3.83;;
6356;SDS011;3211;53.452;-2.264;2022-11-22T05:57:22;5.83;;;4.13;;
6356;SDS011;3211;53.452;-2.264;2022-11-22T05:59:49;6.53;;;3.87;;
6356;SDS011;3211;53.452;-2.264;2022-11-22T06:02:17;4.03;;;3.63;;
6356;SDS011;3211;53.452;-2.264;2022-11-22T06:04:44;4.80;;;3.83;;
6356;SDS011;3211;53.452;-2.264;2022-11-22T06:07:11;5.70;;;3.63;;
6356;SDS011;3211;53.452;-2.264;2022-11-22T06:09:38;3.83;;;3.40;;
6356;SDS011;3211;53.452;-2.264;2022-11-22T06:12:05;7.23;;;3.47;;
6356;SDS011;3211;53.452;-2.264;2022-11-22T06:14:32;6.87;;;4.20;;
6356;SDS011;3211;53.452;-2.264;2022-11-22T06:16:59;4.13;;;3.50;;
6356;SDS011;3211;53.452;-2.264;2022-11-22T06:19:28;4.80;;;3.43;;
6356;SDS011;3211;53.452;-2.264;2022-11-22T06:21:55;5.50;;;3.27;;
6356;SDS011;3211;53.452;-2.264;2022-11-22T06:24:22;4.97;;;2.93;;
6356;SDS011;3211;53.452;-2.264;2022-11-22T06:26:49;3.43;;;2.60;;
6356;SDS011;3211;53.452;-2.264;2022-11-22T06:29:16;6.03;;;2.90;;
6356;SDS011;3211;53.452;-2.264;2022-11-22T06:31:43;4.37;;;3.10;;
6356;SDS011;3211;53.452;-2.264;2022-11-22T06:34:10;4.37;;;2.60;;
6356;SDS011;3211;53.452;-2.264;2022-11-22T06:36:39;4.70;;;2.60;;
6356;SDS011;3211;53.452;-2.264;2022-11-22T06:39:06;4.50;;;2.83;;
6356;SDS011;3211;53.452;-2.264;2022-11-22T06:41:34;8.87;;;2.87;;
6356;SDS011;3211;53.452;-2.264;2022-11-22T06:44:03;2.97;;;2.47;;
6356;SDS011;3211;53.452;-2.264;2022-11-22T06:46:31;5.27;;;2.67;;
6356;SDS011;3211;53.452;-2.264;2022-11-22T06:48:58;3.07;;;2.10;;
6356;SDS011;3211;53.452;-2.264;2022-11-22T06:51:26;3.43;;;2.53;;
6356;SDS011;3211;53.452;-2.264;2022-11-22T06:53:56;3.47;;;2.53;;
6356;SDS011;3211;53.452;-2.264;2022-11-22T06:56:24;4.27;;;2.63;;
6356;SDS011;3211;53.452;-2.264;2022-11-22T06:58:52;3.30;;;2.67;;
6356;SDS011;3211;53.452;-2.264;2022-11-22T07:01:20;3.23;;;2.50;;
6356;SDS011;3211;53.452;-2.264;2022-11-22T07:03:48;5.10;;;2.50;;
6356;SDS011;3211;53.452;-2.264;2022-11-22T07:06:17;3.10;;;2.50;;
6356;SDS011;3211;53.452;-2.264;2022-11-22T07:08:44;6.87;;;3.30;;
6356;SDS011;3211;53.452;-2.264;2022-11-22T07:11:14;2.23;;;2.00;;
6356;SDS011;3211;53.452;-2.264;2022-11-22T07:13:42;13.03;;;3.10;;
6356;SDS011;3211;53.452;-2.264;2022-11-22T07:16:09;7.67;;;2.60;;
6356;SDS011;3211;53.452;-2.264;2022-11-22T07:18:37;6.07;;;2.90;;
6356;SDS011;3211;53.452;-2.264;2022-11-22T07:21:05;2.97;;;2.23;;
6356;SDS011;3211;53.452;-2.264;2022-11-22T07:23:33;8.67;;;2.80;;
6356;SDS011;3211;53.452;-2.264;2022-11-22T07:26:00;6.03;;;3.50;;
6356;SDS011;3211;53.452;-2.264;2022-11-22T07:28:28;7.17;;;3.07;;
6356;SDS011;3211;53.452;-2.264;2022-11-22T07:30:57;9.50;;;2.97;;
6356;SDS011;3211;53.452;-2.264;2022-11-22T07:33:25;6.30;;;3.10;;
6356;SDS011;3211;53.452;-2.264;2022-11-22T07:35:52;6.50;;;3.23;;
6356;SDS011;3211;53.452;-2.264;2022-11-22T07:38:20;4.50;;;3.20;;
6356;SDS011;3211;53.452;-2.264;2022-11-22T07:40:47;8.60;;;3.17;;
6356;SDS011;3211;53.452;-2.264;2022-11-22T07:43:14;7.53;;;3.17;;
6356;SDS011;3211;53.452;-2.264;2022-11-22T07:45:42;6.13;;;2.90;;
6356;SDS011;3211;53.452;-2.264;2022-11-22T07:48:09;4.13;;;2.70;;
6356;SDS011;3211;53.452;-2.264;2022-11-22T07:50:38;4.53;;;3.03;;
6356;SDS011;3211;53.452;-2.264;2022-11-22T07:53:06;12.43;;;3.43;;
6356;SDS011;3211;53.452;-2.264;2022-11-22T07:55:34;7.00;;;3.07;;
6356;SDS011;3211;53.452;-2.264;2022-11-22T07:58:01;4.20;;;3.20;;
6356;SDS011;3211;53.452;-2.264;2022-11-22T08:00:28;5.07;;;2.97;;
6356;SDS011;3211;53.452;-2.264;2022-11-22T08:02:58;3.07;;;2.60;;
6356;SDS011;3211;53.452;-2.264;2022-11-22T08:05:25;6.57;;;3.30;;
6356;SDS011;3211;53.452;-2.264;2022-11-22T08:07:52;3.47;;;2.77;;
6356;SDS011;3211;53.452;-2.264;2022-11-22T08:10:19;5.03;;;3.23;;
6356;SDS011;3211;53.452;-2.264;2022-11-22T08:12:47;3.63;;;3.07;;
6356;SDS011;3211;53.452;-2.264;2022-11-22T08:15:14;4.60;;;3.40;;
6356;SDS011;3211;53.452;-2.264;2022-11-22T08:17:42;5.50;;;3.00;;
6356;SDS011;3211;53.452;-2.264;2022-11-22T08:20:10;6.80;;;3.70;;
6356;SDS011;3211;53.452;-2.264;2022-11-22T08:22:38;6.10;;;3.53;;
6356;SDS011;3211;53.452;-2.264;2022-11-22T08:25:06;6.07;;;3.87;;
6356;SDS011;3211;53.452;-2.264;2022-11-22T08:27:37;6.23;;;3.27;;
6356;SDS011;3211;53.452;-2.264;2022-11-22T08:30:05;8.37;;;3.23;;
6356;SDS011;3211;53.452;-2.264;2022-11-22T08:32:32;5.90;;;4.00;;
6356;SDS011;3211;53.452;-2.264;2022-11-22T08:34:59;6.37;;;3.73;;
6356;SDS011;3211;53.452;-2.264;2022-11-22T08:37:28;6.63;;;3.80;;
6356;SDS011;3211;53.452;-2.264;2022-11-22T08:39:55;10.57;;;4.23;;
6356;SDS011;3211;53.452;-2.264;2022-11-22T08:42:22;6.50;;;4.07;;
6356;SDS011;3211;53.452;-2.264;2022-11-22T08:44:49;5.10;;;3.77;;
6356;SDS011;3211;53.452;-2.264;2022-11-22T08:47:16;7.90;;;4.20;;
6356;SDS011;3211;53.452;-2.264;2022-11-22T08:49:42;8.13;;;3.90;;
6356;SDS011;3211;53.452;-2.264;2022-11-22T08:52:09;6.83;;;4.03;;
6356;SDS011;3211;53.452;-2.264;2022-11-22T08:54:38;7.30;;;3.90;;
6356;SDS011;3211;53.452;-2.264;2022-11-22T08:57:05;15.80;;;6.60;;
6356;SDS011;3211;53.452;-2.264;2022-11-22T08:59:32;79.40;;;28.77;;
6356;SDS011;3211;53.452;-2.264;2022-11-22T09:01:59;115.47;;;40.23;;
6356;SDS011;3211;53.452;-2.264;2022-11-22T09:04:26;30.73;;;12.63;;
6356;SDS011;3211;53.452;-2.264;2022-11-22T09:06:53;40.17;;;16.47;;
6356;SDS011;3211;53.452;-2.264;2022-11-22T09:09:20;18.87;;;8.23;;
6356;SDS011;3211;53.452;-2.264;2022-11-22T09:11:48;7.33;;;4.80;;
6356;SDS011;3211;53.452;-2.264;2022-11-22T09:14:15;11.80;;;6.53;;
6356;SDS011;3211;53.452;-2.264;2022-11-22T09:16:42;10.60;;;5.20;;
6356;SDS011;3211;53.452;-2.264;2022-11-22T09:19:09;7.00;;;4.90;;
6356;SDS011;3211;53.452;-2.264;2022-11-22T09:21:36;6.20;;;4.43;;
6356;SDS011;3211;53.452;-2.264;2022-11-22T09:24:03;10.07;;;5.53;;
6356;SDS011;3211;53.452;-2.264;2022-11-22T09:26:31;10.23;;;5.47;;
6356;SDS011;3211;53.452;-2.264;2022-11-22T09:28:59;8.60;;;5.40;;
6356;SDS011;3211;53.452;-2.264;2022-11-22T09:31:27;9.10;;;5.23;;
6356;SDS011;3211;53.452;-2.264;2022-11-22T09:33:56;8.67;;;4.80;;
6356;SDS011;3211;53.452;-2.264;2022-11-22T09:36:23;9.60;;;4.83;;
6356;SDS011;3211;53.452;-2.264;2022-11-22T09:38:51;11.30;;;5.50;;
6356;SDS011;3211;53.452;-2.264;2022-11-22T09:41:28;10.87;;;5.90;;
6356;SDS011;3211;53.452;-2.264;2022-11-22T09:44:18;8.33;;;4.97;;
6356;SDS011;3211;53.452;-2.264;2022-11-22T09:46:58;10.82;;;6.47;;
6356;SDS011;3211;53.452;-2.264;2022-11-22T09:49:52;8.50;;;5.20;;
6356;SDS011;3211;53.452;-2.264;2022-11-22T09:52:47;6.60;;;4.50;;
6356;SDS011;3211;53.452;-2.264;2022-11-22T09:55:20;7.23;;;4.70;;
6356;SDS011;3211;53.452;-2.264;2022-11-22T09:57:55;7.90;;;4.53;;
6356;SDS011;3211;53.452;-2.264;2022-11-22T10:00:32;8.43;;;4.50;;
6356;SDS011;3211;53.452;-2.264;2022-11-22T10:03:02;10.27;;;5.07;;
6356;SDS011;3211;53.452;-2.264;2022-11-22T10:05:37;11.07;;;4.83;;
6356;SDS011;3211;53.452;-2.264;2022-11-22T10:08:13;7.23;;;4.63;;
6356;SDS011;3211;53.452;-2.264;2022-11-22T10:10:48;16.53;;;14.80;;
6356;SDS011;3211;53.452;-2.264;2022-11-22T10:13:18;86.10;;;69.30;;
6356;SDS011;3211;53.452;-2.264;2022-11-22T10:15:52;42.53;;;32.60;;
6356;SDS011;3211;53.452;-2.264;2022-11-22T10:18:24;42.93;;;29.23;;
6356;SDS011;3211;53.452;-2.264;2022-11-22T10:20:57;25.63;;;10.03;;
6356;SDS011;3211;53.452;-2.264;2022-11-22T10:23:25;13.20;;;5.33;;
6356;SDS011;3211;53.452;-2.264;2022-11-22T10:25:54;7.47;;;5.30;;
6356;SDS011;3211;53.452;-2.264;2022-11-22T10:28:24;9.57;;;4.73;;
6356;SDS011;3211;53.452;-2.264;2022-11-22T10:31:01;9.53;;;5.40;;
6356;SDS011;3211;53.452;-2.264;2022-11-22T10:33:33;8.77;;;4.27;;
6356;SDS011;3211;53.452;-2.264;2022-11-22T10:36:07;11.03;;;7.83;;
6356;SDS011;3211;53.452;-2.264;2022-11-22T10:38:56;5.70;;;4.30;;
6356;SDS011;3211;53.452;-2.264;2022-11-22T10:41:40;6.57;;;4.23;;
6356;SDS011;3211;53.452;-2.264;2022-11-22T10:44:23;8.10;;;4.57;;
6356;SDS011;3211;53.452;-2.264;2022-11-22T10:47:04;9.30;;;5.00;;
6356;SDS011;3211;53.452;-2.264;2022-11-22T10:49:40;15.00;;;5.00;;
6356;SDS011;3211;53.452;-2.264;2022-11-22T10:52:17;6.30;;;5.00;;
6356;SDS011;3211;53.452;-2.264;2022-11-22T10:54:53;6.60;;;4.40;;
6356;SDS011;3211;53.452;-2.264;2022-11-22T10:57:30;7.37;;;4.93;;
6356;SDS011;3211;53.452;-2.264;2022-11-22T11:00:15;15.10;;;6.07;;
6356;SDS011;3211;53.452;-2.264;2022-11-22T11:03:04;6.77;;;4.23;;
6356;SDS011;3211;53.452;-2.264;2022-11-22T11:05:38;5.57;;;3.70;;
6356;SDS011;3211;53.452;-2.264;2022-11-22T11:08:12;6.37;;;3.87;;
6356;SDS011;3211;53.452;-2.264;2022-11-22T11:10:42;7.87;;;4.40;;
6356;SDS011;3211;53.452;-2.264;2022-11-22T11:13:16;8.93;;;4.40;;
6356;SDS011;3211;53.452;-2.264;2022-11-22T11:15:49;5.17;;;3.50;;
6356;SDS011;3211;53.452;-2.264;2022-11-22T11:18:20;5.67;;;3.53;;
6356;SDS011;3211;53.452;-2.264;2022-11-22T11:20:52;4.30;;;3.10;;
6356;SDS011;3211;53.452;-2.264;2022-11-22T11:23:19;4.67;;;3.43;;
6356;SDS011;3211;53.452;-2.264;2022-11-22T11:25:46;5.87;;;4.17;;
6356;SDS011;3211;53.452;-2.264;2022-11-22T11:28:17;8.10;;;4.37;;
6356;SDS011;3211;53.452;-2.264;2022-11-22T11:30:46;5.00;;;3.93;;
6356;SDS011;3211;53.452;-2.264;2022-11-22T11:33:20;6.50;;;3.80;;
6356;SDS011;3211;53.452;-2.264;2022-11-22T11:35:51;5.63;;;3.83;;
6356;SDS011;3211;53.452;-2.264;2022-11-22T11:38:28;5.70;;;3.87;;
6356;SDS011;3211;53.452;-2.264;2022-11-22T11:40:56;3.90;;;3.27;;
6356;SDS011;3211;53.452;-2.264;2022-11-22T11:43:24;4.10;;;3.30;;
6356;SDS011;3211;53.452;-2.264;2022-11-22T11:45:51;4.10;;;3.30;;
6356;SDS011;3211;53.452;-2.264;2022-11-22T11:48:26;7.47;;;3.43;;
6356;SDS011;3211;53.452;-2.264;2022-11-22T11:51:07;6.23;;;3.27;;
6356;SDS011;3211;53.452;-2.264;2022-11-22T11:53:39;6.60;;;4.00;;
6356;SDS011;3211;53.452;-2.264;2022-11-22T11:56:26;7.30;;;3.70;;
6356;SDS011;3211;53.452;-2.264;2022-11-22T11:59:08;12.23;;;3.67;;
6356;SDS011;3211;53.452;-2.264;2022-11-22T12:01:38;5.43;;;4.00;;
6356;SDS011;3211;53.452;-2.264;2022-11-22T12:04:17;7.50;;;3.70;;
6356;SDS011;3211;53.452;-2.264;2022-11-22T12:07:03;7.97;;;2.80;;
6356;SDS011;3211;53.452;-2.264;2022-11-22T12:09:42;4.60;;;3.10;;
6356;SDS011;3211;53.452;-2.264;2022-11-22T12:12:26;7.40;;;3.30;;
6356;SDS011;3211;53.452;-2.264;2022-11-22T12:15:00;7.80;;;3.03;;
6356;SDS011;3211;53.452;-2.264;2022-11-22T12:17:37;6.03;;;3.70;;
6356;SDS011;3211;53.452;-2.264;2022-11-22T12:20:14;6.80;;;3.10;;
6356;SDS011;3211;53.452;-2.264;2022-11-22T12:22:46;5.20;;;2.87;;
6356;SDS011;3211;53.452;-2.264;2022-11-22T12:25:20;6.80;;;3.00;;
6356;SDS011;3211;53.452;-2.264;2022-11-22T12:27:58;9.90;;;3.30;;
6356;SDS011;3211;53.452;-2.264;2022-11-22T12:30:36;7.67;;;3.10;;
6356;SDS011;3211;53.452;-2.264;2022-11-22T12:33:04;6.30;;;3.27;;
6356;SDS011;3211;53.452;-2.264;2022-11-22T12:35:36;7.87;;;3.60;;
6356;SDS011;3211;53.452;-2.264;2022-11-22T12:38:09;4.90;;;2.40;;
6356;SDS011;3211;53.452;-2.264;2022-11-22T12:40:40;6.43;;;2.60;;
6356;SDS011;3211;53.452;-2.264;2022-11-22T12:43:11;4.80;;;2.70;;
6356;SDS011;3211;53.452;-2.264;2022-11-22T12:45:43;5.80;;;3.30;;
6356;SDS011;3211;53.452;-2.264;2022-11-22T12:48:15;3.63;;;2.27;;
6356;SDS011;3211;53.452;-2.264;2022-11-22T12:50:47;5.97;;;2.40;;
6356;SDS011;3211;53.452;-2.264;2022-11-22T12:53:18;4.33;;;2.60;;
6356;SDS011;3211;53.452;-2.264;2022-11-22T12:55:53;4.00;;;2.43;;
6356;SDS011;3211;53.452;-2.264;2022-11-22T12:58:26;4.47;;;2.50;;
6356;SDS011;3211;53.452;-2.264;2022-11-22T13:01:04;5.87;;;2.30;;
6356;SDS011;3211;53.452;-2.264;2022-11-22T13:03:40;8.57;;;2.80;;
6356;SDS011;3211;53.452;-2.264;2022-11-22T13:06:15;4.33;;;2.03;;
6356;SDS011;3211;53.452;-2.264;2022-11-22T13:08:49;3.57;;;2.50;;
6356;SDS011;3211;53.452;-2.264;2022-11-22T13:11:22;10.97;;;2.63;;
6356;SDS011;3211;53.452;-2.264;2022-11-22T13:13:55;4.50;;;2.67;;
6356;SDS011;3211;53.452;-2.264;2022-11-22T13:16:28;6.13;;;2.93;;
6356;SDS011;3211;53.452;-2.264;2022-11-22T13:18:55;6.40;;;3.20;;
6356;SDS011;3211;53.452;-2.264;2022-11-22T13:21:28;7.70;;;3.40;;
6356;SDS011;3211;53.452;-2.264;2022-11-22T13:24:03;5.93;;;2.97;;
6356;SDS011;3211;53.452;-2.264;2022-11-22T13:26:43;3.40;;;2.73;;
6356;SDS011;3211;53.452;-2.264;2022-11-22T13:29:18;6.27;;;2.23;;
6356;SDS011;3211;53.452;-2.264;2022-11-22T13:32:01;3.97;;;2.70;;
6356;SDS011;3211;53.452;-2.264;2022-11-22T13:34:31;3.40;;;2.30;;
6356;SDS011;3211;53.452;-2.264;2022-11-22T13:37:04;4.87;;;2.50;;
6356;SDS011;3211;53.452;-2.264;2022-11-22T13:39:37;4.20;;;2.73;;
6356;SDS011;3211;53.452;-2.264;2022-11-22T13:42:09;4.43;;;2.50;;
6356;SDS011;3211;53.452;-2.264;2022-11-22T13:47:38;4.60;;;2.60;;
6356;SDS011;3211;53.452;-2.264;2022-11-22T13:53:21;4.30;;;2.77;;
6356;SDS011;3211;53.452;-2.264;2022-11-22T13:55:50;4.60;;;2.43;;
6356;SDS011;3211;53.452;-2.264;2022-11-22T14:01:30;6.00;;;3.30;;
6356;SDS011;3211;53.452;-2.264;2022-11-22T14:04:40;6.30;;;3.17;;
6356;SDS011;3211;53.452;-2.264;2022-11-22T14:10:03;6.47;;;2.60;;
6356;SDS011;3211;53.452;-2.264;2022-11-22T14:12:51;4.17;;;2.47;;
6356;SDS011;3211;53.452;-2.264;2022-11-22T14:15:36;3.10;;;2.37;;
6356;SDS011;3211;53.452;-2.264;2022-11-22T14:18:32;4.93;;;2.67;;
6356;SDS011;3211;53.452;-2.264;2022-11-22T14:21:20;5.03;;;2.87;;
6356;SDS011;3211;53.452;-2.264;2022-11-22T14:24:07;4.33;;;2.97;;
6356;SDS011;3211;53.452;-2.264;2022-11-22T14:26:47;7.13;;;3.50;;
6356;SDS011;3211;53.452;-2.264;2022-11-22T14:32:39;6.27;;;3.07;;
6356;SDS011;3211;53.452;-2.264;2022-11-22T14:35:26;6.03;;;3.23;;
6356;SDS011;3211;53.452;-2.264;2022-11-22T14:38:03;12.83;;;4.03;;
6356;SDS011;3211;53.452;-2.264;2022-11-22T14:40:48;3.53;;;3.13;;
6356;SDS011;3211;53.452;-2.264;2022-11-22T14:43:27;4.30;;;3.30;;
6356;SDS011;3211;53.452;-2.264;2022-11-22T14:45:57;4.70;;;3.10;;
6356;SDS011;3211;53.452;-2.264;2022-11-22T14:48:29;6.97;;;3.67;;
6356;SDS011;3211;53.452;-2.264;2022-11-22T14:51:00;5.07;;;3.70;;
6356;SDS011;3211;53.452;-2.264;2022-11-22T14:53:35;4.77;;;3.13;;
6356;SDS011;3211;53.452;-2.264;2022-11-22T14:56:05;5.73;;;3.30;;
6356;SDS011;3211;53.452;-2.264;2022-11-22T14:58:41;7.77;;;3.00;;
6356;SDS011;3211;53.452;-2.264;2022-11-22T15:01:25;6.70;;;3.40;;
6356;SDS011;3211;53.452;-2.264;2022-11-22T15:07:08;4.20;;;3.10;;
6356;SDS011;3211;53.452;-2.264;2022-11-22T15:10:00;5.77;;;3.37;;
6356;SDS011;3211;53.452;-2.264;2022-11-22T15:13:02;5.33;;;3.10;;
6356;SDS011;3211;53.452;-2.264;2022-11-22T15:15:41;4.80;;;2.77;;
6356;SDS011;3211;53.452;-2.264;2022-11-22T15:18:15;6.40;;;3.67;;
6356;SDS011;3211;53.452;-2.264;2022-11-22T15:20:43;7.33;;;3.17;;
6356;SDS011;3211;53.452;-2.264;2022-11-22T15:23:15;9.40;;;3.30;;
6356;SDS011;3211;53.452;-2.264;2022-11-22T15:25:45;4.23;;;2.57;;
6356;SDS011;3211;53.452;-2.264;2022-11-22T15:28:13;6.87;;;2.90;;
6356;SDS011;3211;53.452;-2.264;2022-11-22T15:30:43;3.70;;;2.90;;
6356;SDS011;3211;53.452;-2.264;2022-11-22T15:33:20;5.50;;;2.47;;
6356;SDS011;3211;53.452;-2.264;2022-11-22T15:35:56;8.33;;;2.90;;
6356;SDS011;3211;53.452;-2.264;2022-11-22T15:38:33;6.07;;;2.73;;
6356;SDS011;3211;53.452;-2.264;2022-11-22T15:41:10;5.30;;;2.73;;